createdAt,value
2019-03-13T00:01:33.227Z,1.70
2019-03-13T00:04:02.147Z,2.30
2019-03-13T00:06:31.115Z,2.67
2019-03-13T00:09:00.043Z,4.97
2019-03-13T00:11:29.873Z,3.13
2019-03-13T00:13:58.996Z,2.57
2019-03-13T00:16:27.942Z,3.40
2019-03-13T00:18:56.847Z,4.23
2019-03-13T00:21:25.814Z,1.47
2019-03-13T00:23:54.727Z,2.60
2019-03-13T00:26:23.667Z,3.83
2019-03-13T00:28:52.574Z,5.13
2019-03-13T00:31:21.535Z,3.87
2019-03-13T00:33:50.435Z,2.63
2019-03-13T00:36:19.406Z,3.73
2019-03-13T00:38:48.323Z,3.23
2019-03-13T00:41:17.259Z,6.30
2019-03-13T00:43:46.194Z,10.03
2019-03-13T00:46:15.138Z,7.03
2019-03-13T00:48:44.094Z,3.83
2019-03-13T00:51:13.086Z,7.03
2019-03-13T00:53:42.001Z,10.37
2019-03-13T00:56:10.951Z,11.97
2019-03-13T00:58:39.857Z,10.70
2019-03-13T01:01:22.356Z,3.97
2019-03-13T01:03:52.832Z,7.00
2019-03-13T01:06:23.363Z,9.93
2019-03-13T01:08:52.268Z,4.47
2019-03-13T01:11:21.189Z,5.70
2019-03-13T01:13:50.141Z,8.20
2019-03-13T01:16:19.084Z,8.73
2019-03-13T01:18:48.023Z,7.47
2019-03-13T01:21:16.943Z,3.77
2019-03-13T01:23:45.882Z,11.07
2019-03-13T01:26:14.810Z,11.40
2019-03-13T01:28:43.758Z,14.20
2019-03-13T01:31:16.955Z,12.93
2019-03-13T01:33:45.894Z,7.60
2019-03-13T01:36:14.803Z,16.80
2019-03-13T01:38:43.747Z,10.87
2019-03-13T01:41:12.650Z,13.40
2019-03-13T01:43:41.603Z,15.83
2019-03-13T01:46:10.504Z,15.00
2019-03-13T01:48:39.450Z,17.60
2019-03-13T01:51:08.355Z,24.33
2019-03-13T01:53:37.311Z,19.43
2019-03-13T01:56:06.213Z,25.37
2019-03-13T01:58:35.171Z,18.77
2019-03-13T02:01:04.283Z,26.87
2019-03-13T02:03:33.229Z,20.80
2019-03-13T02:06:02.139Z,18.10
2019-03-13T02:08:31.081Z,33.60
2019-03-13T02:10:59.991Z,27.10
2019-03-13T02:13:28.944Z,25.17
2019-03-13T02:15:57.843Z,29.97
2019-03-13T02:18:26.793Z,33.67
2019-03-13T02:20:55.700Z,25.67
2019-03-13T02:23:24.653Z,33.53
2019-03-13T02:25:53.764Z,35.33
2019-03-13T02:28:22.710Z,28.63
2019-03-13T02:30:51.615Z,26.70
2019-03-13T02:33:20.667Z,29.70
2019-03-13T02:35:49.586Z,26.30
2019-03-13T02:38:18.492Z,27.40
2019-03-13T02:40:47.440Z,19.87
2019-03-13T02:43:16.537Z,28.43
2019-03-13T02:45:45.492Z,24.27
2019-03-13T02:48:14.396Z,32.87
2019-03-13T02:50:43.348Z,26.67
2019-03-13T02:53:12.264Z,34.70
2019-03-13T02:55:41.203Z,28.20
2019-03-13T02:58:10.112Z,22.27
2019-03-13T03:00:56.682Z,30.67
2019-03-13T03:03:27.272Z,19.43
2019-03-13T03:05:57.411Z,25.97
2019-03-13T03:08:26.323Z,20.87
2019-03-13T03:10:55.304Z,25.90
2019-03-13T03:13:24.203Z,28.73
2019-03-13T03:15:53.174Z,18.90
2019-03-13T03:18:22.093Z,16.93
2019-03-13T03:20:51.048Z,23.93
2019-03-13T03:23:19.948Z,22.30
2019-03-13T03:25:48.908Z,26.30
2019-03-13T03:28:17.812Z,26.60
2019-03-13T03:30:46.763Z,21.40
2019-03-13T03:33:15.674Z,26.77
2019-03-13T03:35:45.093Z,24.33
2019-03-13T03:38:13.988Z,22.80
2019-03-13T03:40:42.935Z,16.63
2019-03-13T03:43:11.854Z,7.90
2019-03-13T03:45:40.813Z,22.73
2019-03-13T03:48:09.711Z,16.93
2019-03-13T03:50:39.364Z,20.07
2019-03-13T03:53:08.626Z,23.37
2019-03-13T03:55:37.572Z,23.20
2019-03-13T03:58:06.482Z,29.10
2019-03-13T04:00:35.477Z,16.03
2019-03-13T04:03:04.444Z,23.83
2019-03-13T04:05:33.452Z,17.37
2019-03-13T04:08:02.389Z,20.67
2019-03-13T04:10:31.334Z,15.57
2019-03-13T04:13:00.227Z,19.00
2019-03-13T04:15:29.149Z,17.83
2019-03-13T04:17:58.103Z,12.60
2019-03-13T04:20:27.020Z,16.97
2019-03-13T04:22:55.967Z,10.80
2019-03-13T04:25:27.813Z,18.13
2019-03-13T04:27:56.769Z,11.60
2019-03-13T04:30:25.672Z,10.60
2019-03-13T04:32:54.613Z,15.67
2019-03-13T04:35:23.536Z,18.40
2019-03-13T04:37:52.489Z,15.27
2019-03-13T04:40:21.405Z,21.93
2019-03-13T04:42:50.617Z,19.80
2019-03-13T04:45:19.531Z,24.97
2019-03-13T04:47:48.478Z,21.07
2019-03-13T04:50:17.626Z,21.63
2019-03-13T04:52:46.560Z,21.90
2019-03-13T04:55:16.569Z,35.00
2019-03-13T04:57:45.507Z,20.87
2019-03-13T05:00:20.402Z,32.80
2019-03-13T05:02:49.344Z,28.27
2019-03-13T05:05:41.161Z,21.33
2019-03-13T05:08:12.393Z,25.53
2019-03-13T05:10:41.797Z,24.50
2019-03-13T05:13:10.865Z,31.53
2019-03-13T05:15:40.294Z,20.83
2019-03-13T05:18:09.238Z,17.27
2019-03-13T05:20:38.142Z,23.33
2019-03-13T05:23:07.114Z,15.47
2019-03-13T05:25:36.021Z,23.57
2019-03-13T05:28:04.973Z,19.37
2019-03-13T05:30:33.872Z,21.97
2019-03-13T05:33:02.825Z,19.10
2019-03-13T05:35:31.732Z,24.97
2019-03-13T05:38:00.875Z,24.43
2019-03-13T05:40:29.779Z,27.90
2019-03-13T05:42:58.747Z,23.30
2019-03-13T05:45:27.657Z,18.90
2019-03-13T05:47:56.555Z,18.30
2019-03-13T05:50:25.500Z,19.90
2019-03-13T05:52:54.403Z,20.27
2019-03-13T05:55:24.306Z,12.20
2019-03-13T05:57:53.254Z,17.03
2019-03-13T06:00:23.771Z,16.03
2019-03-13T06:02:52.678Z,21.33
2019-03-13T06:05:21.616Z,18.50
2019-03-13T06:07:50.520Z,20.30
2019-03-13T06:10:19.466Z,20.23
2019-03-13T06:12:48.373Z,14.23
2019-03-13T06:15:17.325Z,13.80
2019-03-13T06:17:46.220Z,19.43
2019-03-13T06:20:18.517Z,19.10
2019-03-13T06:22:47.425Z,16.17
2019-03-13T06:25:16.375Z,16.17
2019-03-13T06:27:46.586Z,19.07
2019-03-13T06:30:18.139Z,14.47
2019-03-13T06:32:47.043Z,12.60
2019-03-13T06:35:15.992Z,9.93
2019-03-13T06:37:44.986Z,13.00
2019-03-13T06:40:16.328Z,11.40
2019-03-13T06:42:45.253Z,9.23
2019-03-13T06:45:15.553Z,11.90
2019-03-13T06:47:44.485Z,15.77
2019-03-13T06:50:19.417Z,9.30
2019-03-13T06:52:48.410Z,12.07
2019-03-13T06:55:17.424Z,10.37
2019-03-13T06:57:46.348Z,11.93
2019-03-13T07:00:27.730Z,20.93
2019-03-13T07:02:58.366Z,15.17
2019-03-13T07:05:45.529Z,15.87
2019-03-13T07:08:18.599Z,16.50
2019-03-13T07:10:57.841Z,10.13
2019-03-13T07:13:44.409Z,12.07
2019-03-13T07:16:15.097Z,14.93
2019-03-13T07:18:45.724Z,16.93
2019-03-13T07:21:28.600Z,13.77
2019-03-13T07:24:08.215Z,18.73
2019-03-13T07:26:38.780Z,16.63
2019-03-13T07:29:24.373Z,11.23
2019-03-13T07:31:55.016Z,18.87
2019-03-13T07:34:28.210Z,21.60
2019-03-13T07:36:58.827Z,19.00
2019-03-13T07:39:38.346Z,15.90
2019-03-13T07:42:08.877Z,17.70
2019-03-13T07:44:39.368Z,12.33
2019-03-13T07:47:12.652Z,21.60
2019-03-13T07:49:48.883Z,20.13
2019-03-13T07:52:34.721Z,23.03
2019-03-13T07:55:05.636Z,19.13
2019-03-13T07:57:36.166Z,21.03
2019-03-13T08:00:12.432Z,19.23
2019-03-13T08:02:43.096Z,28.87
2019-03-13T08:05:19.820Z,19.63
2019-03-13T08:07:50.442Z,23.53
2019-03-13T08:10:23.372Z,19.73
2019-03-13T08:12:53.924Z,20.43
2019-03-13T08:15:40.746Z,20.73
2019-03-13T08:18:13.993Z,18.17
2019-03-13T08:20:44.506Z,17.23
2019-03-13T08:23:24.006Z,16.43
2019-03-13T08:25:54.599Z,16.97
2019-03-13T08:28:27.998Z,21.37
2019-03-13T08:30:58.506Z,17.17
2019-03-13T08:33:31.786Z,19.80
2019-03-13T08:36:17.604Z,19.97
2019-03-13T08:38:48.289Z,20.07
2019-03-13T08:41:27.257Z,13.67
2019-03-13T08:43:57.896Z,21.50
2019-03-13T08:46:28.395Z,12.30
2019-03-13T08:49:11.165Z,21.07
2019-03-13T08:51:57.966Z,19.47
2019-03-13T08:54:37.708Z,9.30
2019-03-13T08:57:17.457Z,20.87
2019-03-13T08:59:48.044Z,17.57
2019-03-13T09:02:35.330Z,14.53
2019-03-13T09:05:09.407Z,13.93
2019-03-13T09:07:55.494Z,15.77
2019-03-13T09:10:26.537Z,22.73
2019-03-13T09:13:01.542Z,14.73
2019-03-13T09:15:32.026Z,15.57
2019-03-13T09:18:14.712Z,14.90
2019-03-13T09:20:54.461Z,13.60
2019-03-13T09:23:31.012Z,18.70
2019-03-13T09:26:04.286Z,15.30
2019-03-13T09:28:37.601Z,23.30
2019-03-13T09:31:08.091Z,22.03
2019-03-13T09:33:50.499Z,12.77
2019-03-13T09:36:30.037Z,9.07
2019-03-13T09:39:03.704Z,13.50
2019-03-13T09:41:46.141Z,16.80
2019-03-13T09:44:28.684Z,10.03
2019-03-13T09:47:15.365Z,14.47
2019-03-13T09:49:54.382Z,11.13
2019-03-13T09:52:28.067Z,12.37
2019-03-13T09:55:04.414Z,18.23
2019-03-13T09:57:39.836Z,9.87
2019-03-13T10:00:29.830Z,16.00
2019-03-13T10:03:16.613Z,12.53
2019-03-13T10:05:56.382Z,9.67
2019-03-13T10:08:26.967Z,13.57
2019-03-13T10:11:04.037Z,13.77
2019-03-13T10:13:34.737Z,15.57
2019-03-13T10:16:14.016Z,17.63
2019-03-13T10:18:47.517Z,11.60
2019-03-13T10:21:18.014Z,14.13
2019-03-13T10:23:48.573Z,16.73
2019-03-13T10:26:37.088Z,8.40
2019-03-13T10:29:07.603Z,9.23
2019-03-13T10:31:38.092Z,5.70
2019-03-13T10:34:25.097Z,10.13
2019-03-13T10:36:55.590Z,16.60
2019-03-13T10:39:41.436Z,11.13
2019-03-13T10:42:11.908Z,9.70
2019-03-13T10:44:48.215Z,11.43
2019-03-13T10:47:30.546Z,7.53
2019-03-13T10:50:03.864Z,9.57
2019-03-13T10:52:40.139Z,7.27
2019-03-13T10:55:17.681Z,10.27
2019-03-13T10:57:51.112Z,11.80
2019-03-13T11:00:33.671Z,11.10
2019-03-13T11:03:13.048Z,10.93
2019-03-13T11:05:43.583Z,12.00
2019-03-13T11:08:16.868Z,15.80
2019-03-13T11:10:47.397Z,10.57
2019-03-13T11:13:17.886Z,18.90
2019-03-13T11:15:48.418Z,8.20
2019-03-13T11:18:18.886Z,11.13
2019-03-13T11:20:49.476Z,6.40
2019-03-13T11:23:25.799Z,11.47
2019-03-13T11:26:08.720Z,8.63
2019-03-13T11:28:39.227Z,7.70
2019-03-13T11:31:21.769Z,8.07
2019-03-13T11:34:08.699Z,7.20
2019-03-13T11:36:45.361Z,7.10
2019-03-13T11:39:24.804Z,5.83
2019-03-13T11:42:00.975Z,6.00
2019-03-13T11:44:34.368Z,6.37
2019-03-13T11:47:11.111Z,7.13
2019-03-13T11:49:58.076Z,6.53
2019-03-13T11:52:44.855Z,3.30
2019-03-13T11:55:18.350Z,8.37
2019-03-13T11:57:52.025Z,3.50
2019-03-13T12:00:38.517Z,5.43
2019-03-13T12:03:09.034Z,7.13
2019-03-13T12:05:48.373Z,2.37
2019-03-13T12:08:24.895Z,4.17
2019-03-13T12:10:58.339Z,1.50
2019-03-13T12:13:46.667Z,3.77
2019-03-13T12:16:19.771Z,1.97
2019-03-13T12:18:50.252Z,2.87
2019-03-13T12:21:35.825Z,4.43
2019-03-13T12:24:18.666Z,4.37
2019-03-13T12:26:54.901Z,6.47
2019-03-13T12:29:28.131Z,4.40
2019-03-13T12:32:16.793Z,5.07
2019-03-13T12:34:59.360Z,8.53
2019-03-13T12:37:41.904Z,6.03
2019-03-13T12:40:17.107Z,5.97
2019-03-13T12:42:59.297Z,6.60
2019-03-13T12:45:32.524Z,7.80
2019-03-13T12:48:16.621Z,6.30
2019-03-13T12:50:50.231Z,9.93
2019-03-13T12:53:29.655Z,9.77
2019-03-13T12:56:09.061Z,10.27
2019-03-13T12:58:46.137Z,8.33
2019-03-13T13:01:16.717Z,10.43
2019-03-13T13:03:56.078Z,7.33
2019-03-13T13:06:44.970Z,9.83
2019-03-13T13:09:27.253Z,6.67
2019-03-13T13:12:06.629Z,9.10
2019-03-13T13:14:37.113Z,9.80
2019-03-13T13:17:23.932Z,10.83
2019-03-13T13:19:52.846Z,11.17
2019-03-13T13:22:21.833Z,16.27
2019-03-13T13:24:51.573Z,16.13
2019-03-13T13:27:20.580Z,11.70
2019-03-13T13:29:49.496Z,12.47
2019-03-13T13:32:18.452Z,12.03
2019-03-13T13:34:47.360Z,13.13
2019-03-13T13:37:16.273Z,15.37
2019-03-13T13:39:45.222Z,11.30
2019-03-13T13:42:14.165Z,12.83
2019-03-13T13:44:43.111Z,14.97
2019-03-13T13:47:12.028Z,13.97
2019-03-13T13:49:40.980Z,13.53
2019-03-13T13:52:09.888Z,8.63
2019-03-13T13:54:38.831Z,8.43
2019-03-13T13:57:07.725Z,6.87
2019-03-13T13:59:36.682Z,8.73
2019-03-13T14:02:05.605Z,3.17
2019-03-13T14:04:34.552Z,5.20
2019-03-13T14:07:03.463Z,6.23
2019-03-13T14:09:32.426Z,4.63
2019-03-13T14:12:01.337Z,4.97
2019-03-13T14:14:30.294Z,5.20
2019-03-13T14:16:59.192Z,6.43
2019-03-13T14:19:28.151Z,2.40
2019-03-13T14:21:57.050Z,5.97
2019-03-13T14:24:25.994Z,11.50
2019-03-13T14:26:54.947Z,6.63
2019-03-13T14:29:23.974Z,10.77
2019-03-13T14:31:52.877Z,12.57
2019-03-13T14:34:21.828Z,12.97
2019-03-13T14:36:50.737Z,17.37
2019-03-13T14:39:19.687Z,17.30
2019-03-13T14:41:48.592Z,17.93
2019-03-13T14:44:18.510Z,14.13
2019-03-13T14:46:47.521Z,13.07
2019-03-13T14:49:16.557Z,12.93
2019-03-13T14:51:45.468Z,16.00
2019-03-13T14:54:14.571Z,14.83
2019-03-13T14:56:43.510Z,21.30
2019-03-13T14:59:12.468Z,17.73
2019-03-13T15:01:41.427Z,15.47
2019-03-13T15:04:12.860Z,20.10
2019-03-13T15:06:42.033Z,22.93
2019-03-13T15:09:10.948Z,21.90
2019-03-13T15:11:39.899Z,18.37
2019-03-13T15:14:08.803Z,11.67
2019-03-13T15:16:37.757Z,25.03
2019-03-13T15:19:06.655Z,18.03
2019-03-13T15:21:35.607Z,17.23
2019-03-13T15:24:04.505Z,15.97
2019-03-13T15:26:33.777Z,16.17
2019-03-13T15:29:02.680Z,16.03
2019-03-13T15:31:31.627Z,14.30
2019-03-13T15:34:00.531Z,18.30
2019-03-13T15:36:29.478Z,16.57
2019-03-13T15:38:58.383Z,29.00
2019-03-13T15:41:27.329Z,20.73
2019-03-13T15:43:56.233Z,20.83
2019-03-13T15:46:25.182Z,19.83
2019-03-13T15:48:54.108Z,19.23
2019-03-13T15:51:23.043Z,18.07
2019-03-13T15:53:51.968Z,25.87
2019-03-13T15:56:20.899Z,23.90
2019-03-13T15:58:49.808Z,18.50
2019-03-13T16:01:18.756Z,23.23
2019-03-13T16:03:47.668Z,22.03
2019-03-13T16:06:17.563Z,24.00
2019-03-13T16:08:46.477Z,25.57
2019-03-13T16:11:15.426Z,29.23
2019-03-13T16:13:44.331Z,25.00
2019-03-13T16:16:13.272Z,25.93
2019-03-13T16:18:42.172Z,21.73
2019-03-13T16:21:11.114Z,26.13
2019-03-13T16:23:40.021Z,25.60
2019-03-13T16:26:08.965Z,22.40
2019-03-13T16:28:37.871Z,19.97
2019-03-13T16:31:07.521Z,28.17
2019-03-13T16:33:36.429Z,20.43
2019-03-13T16:36:05.386Z,18.93
2019-03-13T16:38:34.358Z,23.23
2019-03-13T16:41:03.334Z,26.40
2019-03-13T16:43:32.233Z,24.50
2019-03-13T16:46:01.238Z,20.50
2019-03-13T16:48:30.160Z,15.13
2019-03-13T16:50:59.067Z,10.07
2019-03-13T16:53:28.015Z,12.50
2019-03-13T16:55:57.276Z,6.83
2019-03-13T16:58:26.223Z,14.43
2019-03-13T17:00:55.547Z,8.47
2019-03-13T17:03:24.483Z,5.23
2019-03-13T17:05:53.394Z,7.27
2019-03-13T17:08:22.431Z,6.90
2019-03-13T17:10:51.353Z,10.13
2019-03-13T17:13:20.296Z,9.37
2019-03-13T17:15:49.199Z,9.83
2019-03-13T17:18:18.153Z,8.13
2019-03-13T17:20:47.067Z,10.40
2019-03-13T17:23:16.011Z,13.30
2019-03-13T17:25:44.917Z,9.93
2019-03-13T17:28:13.872Z,14.47
2019-03-13T17:30:42.792Z,18.70
2019-03-13T17:33:11.827Z,11.20
2019-03-13T17:35:40.781Z,13.80
2019-03-13T17:38:09.744Z,9.30
2019-03-13T17:40:39.287Z,14.13
2019-03-13T17:43:08.410Z,13.83
2019-03-13T17:45:37.389Z,13.20
2019-03-13T17:48:07.066Z,18.80
2019-03-13T17:50:36.087Z,38.60
2019-03-13T17:53:05.120Z,57.67
2019-03-13T17:55:34.040Z,48.03
2019-03-13T17:58:02.994Z,39.07
2019-03-13T18:00:53.400Z,16.43
2019-03-13T18:03:23.839Z,23.37
2019-03-13T18:05:52.740Z,29.97
2019-03-13T18:08:21.690Z,28.63
2019-03-13T18:10:50.596Z,21.23
2019-03-13T18:13:19.544Z,25.60
2019-03-13T18:15:48.446Z,30.73
2019-03-13T18:18:17.382Z,31.60
2019-03-13T18:20:46.287Z,26.97
2019-03-13T18:23:15.236Z,35.47
2019-03-13T18:25:44.142Z,32.17
2019-03-13T18:28:13.048Z,30.50
2019-03-13T18:30:42.139Z,30.13
2019-03-13T18:33:11.040Z,31.87
2019-03-13T18:35:41.658Z,36.30
2019-03-13T18:38:10.556Z,25.17
2019-03-13T18:40:39.535Z,37.57
2019-03-13T18:43:08.429Z,39.47
2019-03-13T18:45:37.873Z,33.67
2019-03-13T18:48:07.273Z,34.43
2019-03-13T18:50:36.242Z,27.20
2019-03-13T18:53:05.137Z,29.90
2019-03-13T18:55:35.414Z,33.70
2019-03-13T18:58:04.721Z,32.17
2019-03-13T19:00:37.214Z,32.23
2019-03-13T19:03:07.860Z,30.40
2019-03-13T19:05:38.691Z,31.77
2019-03-13T19:08:07.974Z,27.37
2019-03-13T19:10:36.916Z,33.67
2019-03-13T19:13:06.136Z,30.80
2019-03-13T19:15:35.205Z,26.73
2019-03-13T19:18:04.116Z,27.17
2019-03-13T19:20:33.058Z,36.77
2019-03-13T19:23:01.978Z,32.77
2019-03-13T19:25:31.312Z,29.10
2019-03-13T19:28:00.234Z,21.00
2019-03-13T19:30:33.224Z,20.50
2019-03-13T19:33:02.344Z,26.03
2019-03-13T19:35:31.385Z,35.27
2019-03-13T19:38:05.777Z,19.10
2019-03-13T19:40:34.954Z,24.60
2019-03-13T19:43:05.421Z,23.47
2019-03-13T19:45:45.194Z,17.37
2019-03-13T19:48:14.192Z,14.43
2019-03-13T19:50:43.148Z,22.20
2019-03-13T19:53:14.295Z,19.87
2019-03-13T19:55:43.228Z,17.23
2019-03-13T19:58:12.327Z,28.93
2019-03-13T20:00:41.290Z,15.57
2019-03-13T20:03:16.567Z,18.03
2019-03-13T20:05:46.969Z,20.80
2019-03-13T20:08:15.867Z,22.27
2019-03-13T20:10:44.776Z,23.20
2019-03-13T20:13:13.775Z,22.07
2019-03-13T20:15:42.956Z,23.97
2019-03-13T20:18:12.028Z,19.47
2019-03-13T20:20:43.026Z,22.97
2019-03-13T20:23:18.355Z,18.87
2019-03-13T20:25:57.472Z,12.17
2019-03-13T20:28:26.856Z,12.10
2019-03-13T20:30:56.720Z,18.60
2019-03-13T20:33:27.365Z,14.83
2019-03-13T20:36:00.590Z,11.87
2019-03-13T20:38:29.811Z,11.97
2019-03-13T20:41:00.207Z,13.37
2019-03-13T20:43:29.256Z,17.67
2019-03-13T20:45:58.194Z,10.93
2019-03-13T20:48:27.223Z,17.83
2019-03-13T20:50:56.186Z,18.40
2019-03-13T20:53:25.204Z,17.03
2019-03-13T20:55:54.145Z,19.27
2019-03-13T20:58:26.636Z,11.37
2019-03-13T21:00:55.782Z,13.13
2019-03-13T21:03:24.853Z,15.97
2019-03-13T21:05:53.768Z,19.60
2019-03-13T21:08:22.808Z,19.93
2019-03-13T21:10:51.778Z,16.97
2019-03-13T21:13:21.184Z,24.17
2019-03-13T21:15:50.820Z,24.63
2019-03-13T21:18:19.849Z,19.50
2019-03-13T21:20:48.884Z,25.33
2019-03-13T21:23:17.864Z,22.13
2019-03-13T21:25:46.844Z,20.40
2019-03-13T21:28:15.821Z,27.67
2019-03-13T21:30:44.763Z,21.60
2019-03-13T21:33:13.844Z,21.27
2019-03-13T21:35:42.974Z,23.40
2019-03-13T21:38:13.156Z,17.83
2019-03-13T21:40:42.349Z,20.60
2019-03-13T21:43:11.265Z,26.47
2019-03-13T21:45:41.653Z,19.30
2019-03-13T21:48:10.935Z,15.77
2019-03-13T21:50:40.458Z,15.00
2019-03-13T21:53:09.535Z,23.87
2019-03-13T21:55:38.486Z,19.20
2019-03-13T21:58:07.407Z,12.23
2019-03-13T22:00:36.348Z,14.60
2019-03-13T22:03:05.248Z,17.33
2019-03-13T22:05:34.206Z,10.77
2019-03-13T22:08:03.108Z,9.63
2019-03-13T22:10:33.029Z,9.70
2019-03-13T22:13:01.937Z,13.17
2019-03-13T22:15:30.983Z,8.87
2019-03-13T22:17:59.889Z,4.77
2019-03-13T22:20:28.831Z,7.60
2019-03-13T22:22:57.742Z,10.97
2019-03-13T22:25:26.690Z,8.43
2019-03-13T22:27:55.601Z,6.20
2019-03-13T22:30:28.538Z,13.17
2019-03-13T22:32:56.661Z,9.93
2019-03-13T22:35:25.612Z,10.17
2019-03-13T22:37:54.770Z,12.53
2019-03-13T22:40:23.792Z,19.43
2019-03-13T22:42:52.717Z,16.40
2019-03-13T22:45:22.624Z,15.13
2019-03-13T22:47:53.344Z,21.73
2019-03-13T22:50:24.304Z,22.90
2019-03-13T22:52:53.326Z,26.83
2019-03-13T22:55:22.287Z,22.80
2019-03-13T22:57:51.409Z,23.47
2019-03-13T23:00:27.715Z,22.23
2019-03-13T23:02:58.099Z,20.33
2019-03-13T23:05:29.263Z,21.63
2019-03-13T23:07:59.448Z,20.40
2019-03-13T23:10:35.315Z,18.53
2019-03-13T23:13:05.766Z,23.93
2019-03-13T23:15:35.866Z,20.53
2019-03-13T23:18:04.815Z,27.30
2019-03-13T23:20:33.735Z,23.83
2019-03-13T23:23:02.698Z,28.30
2019-03-13T23:25:31.703Z,28.43
2019-03-13T23:28:00.751Z,23.13
2019-03-13T23:30:29.655Z,30.43
2019-03-13T23:32:58.613Z,23.20
2019-03-13T23:35:27.547Z,24.97
2019-03-13T23:37:56.522Z,28.03
2019-03-13T23:40:25.418Z,27.27
2019-03-13T23:42:54.375Z,34.30
2019-03-13T23:45:23.268Z,23.47
2019-03-13T23:47:52.210Z,30.13
2019-03-13T23:50:21.112Z,35.97
2019-03-13T23:52:50.065Z,28.27
2019-03-13T23:55:18.981Z,22.53
2019-03-13T23:57:47.964Z,19.47
